SAMR/AFA METAR and TAF weather

Enter ICAO airport designator
Station Type Date Time Source
SAMR METAR 2021/04/21 12:18 UTC NOAA

SAMR 211218Z 14009KT 1500 +RA BKN007 OVC025 11/10 Q1015


Station Type Date Time Source
SAMR Decoded METAR 2021/04/21 12:18 UTC NOAA

San Rafael Aerodrome, Argentina (SAMR) 34-35S 068-24W 748M
Apr 21, 2021 - 08:18 AM EDT / 2021.04.21 1218 UTC
Wind: from the SE (140 degrees) at 10 MPH (9 KT):0
Visibility: less than 1 mile:0
Sky conditions: overcast
Weather: heavy rain
Temperature: 51 F (11 C)
Dew Point: 50 F (10 C)
Relative Humidity: 93%
Pressure (altimeter): 29.97 in. Hg (1015 hPa)
ob: SAMR 211218Z 14009KT 1500 +RA BKN007 OVC025 11/10 Q1015
cycle: 12

Station Type Date Time Source
SAMR TAF 2021/02/16 18:09 UTC NOAA

TAF SAMR 161700Z 1618/1718 03010KT 9999 FEW040 TX29/1620Z TN15/1710Z
BECMG 1620/1622 FEW040CB PROB30
TEMPO 1622/1700 6000 TSRA BKN30 FEW040CB
BECMG 1701/1703 VRB03KT 9999 CAVOK

Example: see airport list